Aérodrome :
LOGIN :

S'inscrire | Disclaimer

   EN    FR    IT 

 










Légende :    VFR   VFR Marginal   IFR   IFR Intensif   IFR Très Intensif
Visi : 
Plafond : 
>= 8 km
>= 3000ft
5 à 8 km
1000 à 3000 ft
1500m à 5 km
500 à 1000 ft
800 à 1500m
200 à 500 ft
< 800m
< 200 ft
Symboles :   Orages  Brouillard  Fortes neiges  Fortes précipitations  Vent > 20 kt
SIGMETs :   Divers  Orages  Givrage  Turbulence  Onde Orograph.  Cendres Volcan.






- Altitude de l'aérodrome : 1375 ft
- Code IATA : SCV


LRSV - Suceava Stefan cel Mare

DERNIER METAR :
  • 191600Z 27002KT 230V320 9999 BKN013 M01/M04 Q1030

METARs EXPIRÉS :
  • 191530Z 23002KT 190V250 9999 OVC013 M01/M04 Q1030
  • 191500Z 25003KT 150V300 9999 OVC013 M01/M04 Q1029
  • 191430Z 26003KT 9999 OVC012 M02/M04 Q1029
  • 191400Z 19003KT 130V240 9999 OVC012 M02/M04 Q1029
  • 191330Z 20004KT 170V230 9999 OVC011 M01/M04 Q1028

TAF TAF LRSV
Valide du 19 à 15h jusqu'au 20 à 00h UTC


191400Z 1915/1924 VRB04KT 9999 BKN010
TEMPO 1918/1924 5000 BR BKN005



MET'MAP, la Météo Aéronautique d'un coup d'oeil ! - Copyright ORBIFLY Décembre 2007 - Disclaimer

ORBIFLY MET'MAP TEAM :

Programmation & Développement : Alexandra Zaïnal
Sur une idée originale de : Baudouin d'Aumeries
Assistance à la programmation : Marc-Olivier Méhu
Soutien technique & logistique : Manuel Goepfert

Contact : metmap@orbifly.com




SOURCES & CREDITS :

   NOAA